createdAt,value
2023-04-18T00:00:43.827Z,84.19
2023-04-18T00:01:43.889Z,84.08
2023-04-18T00:02:43.912Z,83.98
2023-04-18T00:03:43.999Z,83.98
2023-04-18T00:04:43.951Z,83.98
2023-04-18T00:05:43.780Z,84.08
2023-04-18T00:06:43.786Z,83.98
2023-04-18T00:07:43.764Z,83.98
2023-04-18T00:08:43.731Z,83.98
2023-04-18T00:09:44.787Z,83.77
2023-04-18T00:10:43.744Z,83.67
2023-04-18T00:11:43.737Z,83.67
2023-04-18T00:12:43.677Z,83.56
2023-04-18T00:13:43.681Z,83.56
2023-04-18T00:14:43.683Z,83.56
2023-04-18T00:15:43.697Z,83.67
2023-04-18T00:16:43.696Z,83.67
2023-04-18T00:17:43.715Z,83.56
2023-04-18T00:18:43.615Z,83.56
2023-04-18T00:19:43.656Z,83.67
2023-04-18T00:20:43.585Z,83.67
2023-04-18T00:21:43.617Z,83.98
2023-04-18T00:22:43.573Z,84.08
2023-04-18T00:23:43.593Z,84.08
2023-04-18T00:24:43.547Z,83.98
2023-04-18T00:25:43.579Z,83.98
2023-04-18T00:26:43.562Z,83.87
2023-04-18T00:27:43.533Z,83.87
2023-04-18T00:28:43.525Z,83.77
2023-04-18T00:29:43.530Z,83.87
2023-04-18T00:30:43.548Z,83.87
2023-04-18T00:31:43.478Z,83.87
2023-04-18T00:32:43.496Z,83.77
2023-04-18T00:33:43.492Z,83.77
2023-04-18T00:34:43.433Z,83.77
2023-04-18T00:35:43.454Z,83.87
2023-04-18T00:36:43.440Z,83.87
2023-04-18T00:37:43.422Z,83.87
2023-04-18T00:38:43.446Z,83.87
2023-04-18T00:39:43.399Z,84.12
2023-04-18T00:40:43.382Z,84.33
2023-04-18T00:41:43.440Z,84.43
2023-04-18T00:42:43.338Z,84.43
2023-04-18T00:43:43.347Z,84.43
2023-04-18T00:44:43.339Z,84.33
2023-04-18T00:45:43.378Z,84.12
2023-04-18T00:46:43.299Z,84.12
2023-04-18T00:47:43.367Z,84.01
2023-04-18T00:48:43.275Z,84.01
2023-04-18T00:49:43.328Z,84.01
2023-04-18T00:50:43.276Z,84.01
2023-04-18T00:51:43.298Z,84.01
2023-04-18T00:52:43.266Z,84.22
2023-04-18T00:53:43.264Z,84.33
2023-04-18T00:54:43.229Z,84.33
2023-04-18T00:55:43.254Z,84.43
2023-04-18T00:56:43.205Z,84.33
2023-04-18T00:57:43.195Z,84.33
2023-04-18T00:58:43.187Z,84.33
2023-04-18T00:59:43.234Z,84.43
2023-04-18T01:00:43.183Z,84.43
2023-04-18T01:01:43.190Z,84.43
2023-04-18T01:02:43.396Z,84.43
2023-04-18T01:03:50.784Z,84.33
2023-04-18T01:04:43.129Z,84.33
2023-04-18T01:05:43.148Z,84.22
2023-04-18T01:06:43.077Z,84.12
2023-04-18T01:07:43.112Z,84.22
2023-04-18T01:08:43.061Z,84.22
2023-04-18T01:09:43.088Z,84.33
2023-04-18T01:10:43.054Z,84.43
2023-04-18T01:11:43.062Z,84.33
2023-04-18T01:12:43.021Z,84.33
2023-04-18T01:13:43.065Z,84.12
2023-04-18T01:14:42.993Z,84.43
2023-04-18T01:15:43.092Z,84.67
2023-04-18T01:16:42.988Z,84.99
2023-04-18T01:17:43.059Z,85.19
2023-04-18T01:18:42.974Z,85.50
2023-04-18T01:19:42.975Z,85.75
2023-04-18T01:20:42.960Z,85.85
2023-04-18T01:21:42.937Z,85.85
2023-04-18T01:22:42.916Z,85.85
2023-04-18T01:23:42.937Z,85.85
2023-04-18T01:24:42.912Z,85.95
2023-04-18T01:25:42.908Z,85.81
2023-04-18T01:26:42.865Z,85.71
2023-04-18T01:27:42.878Z,85.71
2023-04-18T01:28:42.873Z,85.50
2023-04-18T01:29:42.859Z,85.60
2023-04-18T01:30:42.824Z,85.50
2023-04-18T01:31:42.952Z,85.39
2023-04-18T01:32:42.858Z,85.30
2023-04-18T01:33:42.829Z,85.30
2023-04-18T01:34:42.773Z,85.39
2023-04-18T01:35:42.812Z,85.39
2023-04-18T01:36:42.762Z,85.50
2023-04-18T01:37:42.790Z,85.50
2023-04-18T01:38:42.755Z,85.50
2023-04-18T01:39:42.758Z,85.50
2023-04-18T01:40:42.723Z,85.39
2023-04-18T01:41:42.758Z,85.30
2023-04-18T01:42:42.700Z,85.39
2023-04-18T01:43:42.723Z,85.30
2023-04-18T01:44:42.665Z,85.19
2023-04-18T01:45:42.689Z,85.09
2023-04-18T01:46:43.670Z,85.05
2023-04-18T01:47:42.696Z,84.94
2023-04-18T01:48:42.640Z,84.84
2023-04-18T01:49:42.682Z,84.84
2023-04-18T01:50:42.624Z,84.94
2023-04-18T01:51:42.620Z,84.94
2023-04-18T01:52:43.542Z,84.84
2023-04-18T01:53:42.601Z,84.84
2023-04-18T01:54:42.590Z,84.94
2023-04-18T01:55:42.582Z,84.94
2023-04-18T01:56:42.882Z,84.94
2023-04-18T01:57:42.570Z,84.94
2023-04-18T01:58:42.538Z,84.94
2023-04-18T01:59:42.553Z,84.94
2023-04-18T02:00:42.554Z,84.84
2023-04-18T02:01:42.530Z,84.84
2023-04-18T02:02:42.730Z,84.94
2023-04-18T02:03:42.823Z,85.15
2023-04-18T02:04:42.454Z,85.46
2023-04-18T02:05:42.493Z,85.81
2023-04-18T02:06:42.439Z,86.02
2023-04-18T02:07:42.444Z,86.18
2023-04-18T02:08:47.961Z,86.08
2023-04-18T02:09:42.445Z,86.18
2023-04-18T02:10:42.382Z,86.18
2023-04-18T02:11:42.424Z,86.08
2023-04-18T02:12:42.394Z,85.87
2023-04-18T02:13:42.385Z,85.73
2023-04-18T02:14:42.360Z,85.63
2023-04-18T02:15:42.375Z,85.52
2023-04-18T02:16:42.389Z,85.42
2023-04-18T02:17:42.477Z,85.22
2023-04-18T02:18:42.304Z,85.22
2023-04-18T02:19:42.318Z,85.31
2023-04-18T02:20:42.312Z,85.42
2023-04-18T02:21:42.299Z,85.22
2023-04-18T02:22:43.225Z,85.22
2023-04-18T02:23:42.274Z,85.22
2023-04-18T02:24:42.262Z,85.31
2023-04-18T02:25:42.261Z,85.22
2023-04-18T02:26:42.219Z,85.22
2023-04-18T02:27:42.245Z,85.22
2023-04-18T02:28:42.235Z,85.11
2023-04-18T02:29:42.172Z,85.01
2023-04-18T02:30:42.196Z,85.01
2023-04-18T02:31:42.190Z,85.11
2023-04-18T02:32:42.235Z,85.31
2023-04-18T02:33:42.146Z,85.52
2023-04-18T02:34:42.191Z,85.73
2023-04-18T02:35:42.116Z,86.18
2023-04-18T02:36:42.133Z,86.49
2023-04-18T02:37:42.106Z,86.70
2023-04-18T02:38:42.135Z,86.70
2023-04-18T02:39:42.103Z,86.90
2023-04-18T02:40:42.092Z,87.11
2023-04-18T02:41:42.085Z,87.32
2023-04-18T02:42:42.077Z,87.42
2023-04-18T02:43:42.059Z,87.32
2023-04-18T02:44:43.022Z,87.32
2023-04-18T02:45:42.038Z,87.32
2023-04-18T02:46:42.064Z,87.32
2023-04-18T02:47:51.721Z,87.32
2023-04-18T02:48:43.002Z,87.32
2023-04-18T02:49:41.977Z,87.21
2023-04-18T02:50:42.003Z,87.21
2023-04-18T02:51:41.960Z,87.32
2023-04-18T02:52:41.965Z,87.32
2023-04-18T02:53:41.938Z,87.32
2023-04-18T02:54:41.932Z,87.32
2023-04-18T02:55:41.928Z,87.11
2023-04-18T02:56:41.923Z,86.97
2023-04-18T02:57:41.871Z,86.97
2023-04-18T02:58:41.922Z,86.97
2023-04-18T02:59:41.866Z,86.97
2023-04-18T03:00:41.888Z,86.66
2023-04-18T03:01:41.888Z,86.66
2023-04-18T03:02:41.914Z,86.76
2023-04-18T03:03:41.819Z,86.76
2023-04-18T03:04:41.879Z,86.66
2023-04-18T03:05:41.818Z,86.55
2023-04-18T03:06:41.855Z,86.55
2023-04-18T03:07:41.771Z,86.55
2023-04-18T03:08:41.815Z,86.45
2023-04-18T03:09:41.734Z,86.45
2023-04-18T03:10:41.768Z,86.55
2023-04-18T03:11:41.780Z,86.55
2023-04-18T03:12:42.723Z,86.76
2023-04-18T03:13:41.737Z,86.76
2023-04-18T03:14:41.748Z,86.66
2023-04-18T03:15:41.777Z,86.76
2023-04-18T03:16:41.703Z,86.76
2023-04-18T03:17:41.747Z,86.66
2023-04-18T03:18:41.709Z,86.76
2023-04-18T03:19:41.666Z,86.87
2023-04-18T03:20:41.738Z,86.87
2023-04-18T03:21:41.615Z,86.87
2023-04-18T03:22:41.630Z,86.87
2023-04-18T03:23:41.622Z,86.87
2023-04-18T03:24:41.674Z,86.76
2023-04-18T03:25:41.565Z,86.76
2023-04-18T03:26:41.586Z,86.97
2023-04-18T03:27:41.562Z,87.17
2023-04-18T03:28:41.610Z,87.17
2023-04-18T03:29:41.552Z,87.17
2023-04-18T03:30:41.572Z,87.27
2023-04-18T03:31:41.645Z,87.27
2023-04-18T03:32:41.568Z,87.48
2023-04-18T03:33:41.524Z,87.59
2023-04-18T03:34:41.522Z,87.69
2023-04-18T03:35:41.483Z,87.79
2023-04-18T03:36:41.478Z,87.79
2023-04-18T03:37:41.453Z,87.79
2023-04-18T03:38:41.461Z,87.90
2023-04-18T03:39:41.446Z,87.79
2023-04-18T03:40:41.426Z,87.90
2023-04-18T03:41:41.409Z,87.90
2023-04-18T03:42:41.426Z,87.99
2023-04-18T03:43:41.383Z,88.10
2023-04-18T03:44:41.413Z,88.20
2023-04-18T03:45:41.361Z,87.99
2023-04-18T03:46:41.580Z,88.10
2023-04-18T03:47:41.410Z,88.20
2023-04-18T03:48:41.361Z,88.31
2023-04-18T03:49:41.627Z,88.31
2023-04-18T03:50:41.645Z,88.20
2023-04-18T03:51:41.317Z,88.20
2023-04-18T03:52:41.306Z,88.20
2023-04-18T03:53:41.262Z,88.31
2023-04-18T03:54:41.296Z,88.20
2023-04-18T03:55:41.266Z,88.10
2023-04-18T03:56:41.297Z,87.99
2023-04-18T03:57:41.484Z,87.90
2023-04-18T03:58:41.250Z,87.69
2023-04-18T03:59:41.206Z,87.69
2023-04-18T04:00:41.253Z,87.59
2023-04-18T04:01:41.236Z,87.79
2023-04-18T04:02:41.311Z,87.99
2023-04-18T04:03:41.454Z,88.20
2023-04-18T04:04:41.336Z,88.41
2023-04-18T04:05:41.170Z,88.51
2023-04-18T04:06:41.181Z,88.51
2023-04-18T04:07:41.132Z,88.62
2023-04-18T04:08:41.126Z,88.62
2023-04-18T04:09:41.110Z,88.41
2023-04-18T04:10:41.116Z,88.31
2023-04-18T04:11:41.137Z,88.51
2023-04-18T04:12:41.099Z,88.51
2023-04-18T04:13:41.061Z,88.51
2023-04-18T04:14:41.090Z,88.51
2023-04-18T04:15:41.075Z,88.72
2023-04-18T04:16:41.106Z,88.82
2023-04-18T04:17:41.053Z,88.72
2023-04-18T04:18:41.089Z,88.82
2023-04-18T04:19:41.010Z,88.92
2023-04-18T04:20:41.045Z,88.72
2023-04-18T04:21:41.031Z,88.92
2023-04-18T04:22:41.065Z,88.92
2023-04-18T04:23:40.963Z,88.92
2023-04-18T04:24:41.021Z,88.82
2023-04-18T04:25:41.673Z,88.92
2023-04-18T04:26:40.961Z,89.03
2023-04-18T04:27:41.624Z,88.82
2023-04-18T04:28:40.947Z,88.82
2023-04-18T04:29:40.909Z,88.72
2023-04-18T04:30:40.941Z,88.72
2023-04-18T04:31:40.877Z,88.72
2023-04-18T04:32:40.983Z,88.86
2023-04-18T04:33:40.847Z,88.82
2023-04-18T04:34:40.851Z,88.82
2023-04-18T04:35:40.887Z,88.82
2023-04-18T04:36:42.093Z,88.92
2023-04-18T04:37:40.817Z,88.62
2023-04-18T04:38:40.909Z,88.62
2023-04-18T04:39:40.782Z,88.72
2023-04-18T04:40:41.766Z,88.92
2023-04-18T04:41:40.925Z,88.72
2023-04-18T04:42:40.834Z,88.51
2023-04-18T04:43:40.784Z,88.62
2023-04-18T04:44:40.878Z,88.72
2023-04-18T04:45:40.787Z,88.62
2023-04-18T04:46:41.993Z,88.51
2023-04-18T04:47:40.833Z,88.51
2023-04-18T04:48:40.702Z,88.51
2023-04-18T04:49:40.665Z,88.51
2023-04-18T04:50:40.688Z,88.31
2023-04-18T04:51:40.746Z,88.10
2023-04-18T04:52:40.697Z,88.20
2023-04-18T04:53:40.697Z,88.41
2023-04-18T04:54:40.640Z,88.41
2023-04-18T04:55:40.594Z,88.20
2023-04-18T04:56:41.594Z,88.10
2023-04-18T04:57:40.599Z,87.99
2023-04-18T04:58:41.300Z,87.90
2023-04-18T04:59:40.554Z,87.75
2023-04-18T05:00:40.592Z,87.79
2023-04-18T05:01:41.326Z,87.79
2023-04-18T05:02:41.514Z,87.90
2023-04-18T05:03:40.832Z,88.10
2023-04-18T05:04:40.574Z,87.99
2023-04-18T05:05:40.496Z,87.99
2023-04-18T05:06:40.605Z,87.99
2023-04-18T05:07:40.623Z,87.85
2023-04-18T05:08:41.434Z,87.75
2023-04-18T05:09:40.481Z,87.75
2023-04-18T05:10:40.509Z,87.54
2023-04-18T05:11:40.497Z,87.44
2023-04-18T05:12:41.914Z,87.54
2023-04-18T05:13:40.421Z,87.65
2023-04-18T05:14:40.431Z,87.65
2023-04-18T05:15:40.447Z,87.65
2023-04-18T05:16:40.462Z,87.65
2023-04-18T05:17:40.378Z,87.65
2023-04-18T05:18:40.387Z,87.44
2023-04-18T05:19:40.429Z,87.54
2023-04-18T05:20:40.359Z,87.75
2023-04-18T05:21:40.355Z,87.75
2023-04-18T05:22:40.443Z,87.85
2023-04-18T05:23:40.301Z,87.96
2023-04-18T05:24:40.324Z,88.10
2023-04-18T05:25:40.285Z,88.31
2023-04-18T05:26:40.333Z,88.41
2023-04-18T05:27:41.221Z,88.62
2023-04-18T05:28:40.326Z,88.72
2023-04-18T05:29:41.216Z,88.41
2023-04-18T05:30:40.350Z,88.31
2023-04-18T05:31:40.232Z,88.31
2023-04-18T05:32:40.319Z,88.17
2023-04-18T05:33:40.250Z,88.26
2023-04-18T05:34:40.198Z,88.26
2023-04-18T05:35:40.239Z,88.17
2023-04-18T05:36:40.380Z,88.06
2023-04-18T05:37:40.149Z,88.06
2023-04-18T05:38:41.647Z,88.17
2023-04-18T05:39:40.355Z,88.26
2023-04-18T05:40:41.653Z,88.57
2023-04-18T05:41:40.157Z,88.26
2023-04-18T05:42:41.109Z,88.17
2023-04-18T05:43:40.215Z,87.96
2023-04-18T05:44:40.114Z,87.85
2023-04-18T05:45:40.084Z,87.85
2023-04-18T05:46:40.191Z,88.06
2023-04-18T05:47:40.112Z,88.26
2023-04-18T05:48:40.076Z,88.37
2023-04-18T05:49:40.034Z,88.26
2023-04-18T05:50:40.050Z,88.06
2023-04-18T05:51:40.003Z,87.96
2023-04-18T05:52:40.044Z,88.26
2023-04-18T05:53:39.981Z,88.33
2023-04-18T05:54:40.035Z,88.23
2023-04-18T05:55:39.960Z,88.12
2023-04-18T05:56:39.995Z,88.33
2023-04-18T05:57:39.945Z,88.57
2023-04-18T05:58:39.952Z,88.57
2023-04-18T05:59:39.965Z,88.78
2023-04-18T06:00:39.933Z,88.99
2023-04-18T06:01:39.901Z,89.09
2023-04-18T06:02:40.043Z,89.09
2023-04-18T06:03:40.155Z,88.99
2023-04-18T06:04:40.025Z,89.09
2023-04-18T06:05:39.896Z,89.19
2023-04-18T06:06:39.868Z,89.29
2023-04-18T06:07:39.839Z,89.29
2023-04-18T06:08:39.838Z,89.29
2023-04-18T06:09:39.832Z,88.78
2023-04-18T06:10:39.820Z,88.78
2023-04-18T06:11:39.797Z,88.99
2023-04-18T06:12:39.811Z,89.19
2023-04-18T06:13:39.768Z,89.09
2023-04-18T06:14:39.794Z,89.09
2023-04-18T06:15:39.763Z,88.99
2023-04-18T06:16:39.831Z,88.99
2023-04-18T06:17:39.796Z,88.89
2023-04-18T06:18:39.744Z,88.99
2023-04-18T06:19:39.727Z,88.84
2023-04-18T06:20:39.740Z,88.84
2023-04-18T06:21:39.687Z,88.74
2023-04-18T06:22:39.707Z,88.33
2023-04-18T06:23:39.654Z,88.12
2023-04-18T06:24:39.695Z,88.02
2023-04-18T06:25:39.633Z,87.87
2023-04-18T06:26:39.672Z,87.77
2023-04-18T06:27:39.614Z,87.46
2023-04-18T06:28:39.880Z,86.85
2023-04-18T06:29:39.610Z,86.74
2023-04-18T06:30:39.613Z,86.85
2023-04-18T06:31:39.663Z,86.95
2023-04-18T06:32:39.604Z,87.15
2023-04-18T06:33:39.574Z,87.46
2023-04-18T06:34:39.560Z,87.67
2023-04-18T06:35:39.559Z,87.67
2023-04-18T06:36:39.530Z,87.57
2023-04-18T06:37:39.519Z,87.57
2023-04-18T06:38:39.538Z,87.67
2023-04-18T06:39:39.485Z,87.57
2023-04-18T06:40:39.523Z,87.05
2023-04-18T06:41:39.491Z,86.91
2023-04-18T06:42:40.444Z,86.85
2023-04-18T06:43:44.313Z,86.85
2023-04-18T06:44:40.593Z,87.05
2023-04-18T06:45:39.496Z,87.05
2023-04-18T06:46:39.434Z,87.36
2023-04-18T06:47:39.429Z,87.26
2023-04-18T06:48:39.388Z,87.15
2023-04-18T06:49:39.439Z,87.26
2023-04-18T06:50:39.382Z,87.36
2023-04-18T06:51:39.370Z,87.26
2023-04-18T06:52:39.362Z,87.26
2023-04-18T06:53:39.378Z,87.15
2023-04-18T06:54:39.396Z,87.05
2023-04-18T06:55:39.365Z,87.15
2023-04-18T06:56:39.336Z,87.15
2023-04-18T06:57:39.319Z,86.85
2023-04-18T06:58:39.303Z,86.70
2023-04-18T06:59:39.320Z,86.80
2023-04-18T07:00:39.254Z,86.60
2023-04-18T07:01:39.377Z,86.29
2023-04-18T07:02:39.368Z,86.54
2023-04-18T07:03:39.346Z,86.54
2023-04-18T07:04:39.334Z,86.64
2023-04-18T07:05:39.237Z,86.74
2023-04-18T07:06:39.194Z,87.05
2023-04-18T07:07:39.232Z,87.26
2023-04-18T07:08:39.219Z,87.36
2023-04-18T07:09:39.183Z,87.36
2023-04-18T07:10:39.180Z,87.15
2023-04-18T07:11:39.187Z,87.05
2023-04-18T07:12:40.097Z,86.85
2023-04-18T07:13:39.180Z,86.95
2023-04-18T07:14:39.123Z,87.05
2023-04-18T07:15:39.141Z,87.15
2023-04-18T07:16:39.151Z,86.95
2023-04-18T07:17:39.135Z,87.05
2023-04-18T07:18:39.091Z,86.95
2023-04-18T07:19:39.126Z,86.91
2023-04-18T07:20:39.046Z,86.70
2023-04-18T07:21:39.060Z,86.40
2023-04-18T07:22:39.035Z,86.29
2023-04-18T07:23:39.039Z,86.40
2023-04-18T07:24:40.047Z,86.29
2023-04-18T07:25:39.964Z,85.98
2023-04-18T07:26:39.944Z,86.08
2023-04-18T07:27:38.989Z,86.19
2023-04-18T07:28:39.014Z,86.08
2023-04-18T07:29:39.076Z,86.19
2023-04-18T07:30:38.968Z,86.08
2023-04-18T07:31:39.640Z,86.15
2023-04-18T07:32:39.023Z,85.74
2023-04-18T07:33:38.943Z,85.74
2023-04-18T07:34:38.947Z,85.53
2023-04-18T07:35:38.980Z,85.53
2023-04-18T07:36:38.915Z,85.43
2023-04-18T07:37:38.909Z,85.43
2023-04-18T07:38:38.866Z,85.33
2023-04-18T07:39:38.873Z,85.08
2023-04-18T07:40:38.867Z,84.67
2023-04-18T07:41:38.858Z,84.88
2023-04-18T07:42:38.876Z,84.88
2023-04-18T07:43:38.902Z,84.98
2023-04-18T07:44:38.792Z,84.77
2023-04-18T07:45:40.267Z,84.98
2023-04-18T07:46:38.800Z,84.88
2023-04-18T07:47:38.950Z,84.74
2023-04-18T07:48:38.772Z,84.77
2023-04-18T07:49:38.751Z,85.18
2023-04-18T07:50:38.752Z,84.77
2023-04-18T07:51:38.757Z,84.53
2023-04-18T07:52:39.602Z,84.53
2023-04-18T07:53:38.834Z,84.53
2023-04-18T07:54:38.724Z,84.12
2023-04-18T07:55:38.721Z,84.12
2023-04-18T07:56:38.671Z,84.32
2023-04-18T07:57:38.676Z,84.22
2023-04-18T07:58:38.677Z,84.12
2023-04-18T07:59:38.655Z,84.12
2023-04-18T08:00:38.688Z,84.32
2023-04-18T08:01:38.705Z,84.22
2023-04-18T08:02:38.729Z,84.22
2023-04-18T08:03:38.766Z,84.67
2023-04-18T08:04:38.741Z,84.88
2023-04-18T08:05:38.770Z,84.94
2023-04-18T08:06:38.545Z,84.67
2023-04-18T08:07:38.561Z,84.84
2023-04-18T08:08:38.545Z,84.63
2023-04-18T08:09:38.550Z,84.42
2023-04-18T08:10:38.548Z,84.22
2023-04-18T08:11:38.573Z,84.01
2023-04-18T08:12:38.548Z,84.12
2023-04-18T08:13:38.533Z,84.12
2023-04-18T08:14:38.577Z,84.32
2023-04-18T08:15:38.489Z,84.12
2023-04-18T08:16:38.636Z,84.32
2023-04-18T08:17:38.521Z,84.12
2023-04-18T08:18:39.170Z,84.32
2023-04-18T08:19:38.458Z,84.32
2023-04-18T08:20:38.418Z,84.53
2023-04-18T08:21:38.498Z,84.63
2023-04-18T08:22:49.930Z,84.32
2023-04-18T08:23:39.414Z,84.77
2023-04-18T08:24:38.368Z,84.63
2023-04-18T08:25:38.394Z,84.53
2023-04-18T08:26:38.411Z,84.42
2023-04-18T08:27:38.355Z,84.01
2023-04-18T08:28:38.320Z,84.01
2023-04-18T08:29:38.344Z,84.08
2023-04-18T08:30:38.325Z,83.67
2023-04-18T08:31:38.466Z,83.77
2023-04-18T08:32:38.336Z,83.26
2023-04-18T08:33:38.344Z,83.36
2023-04-18T08:34:38.281Z,83.36
2023-04-18T08:35:38.281Z,83.32
2023-04-18T08:36:38.230Z,83.12
2023-04-18T08:37:38.238Z,82.81
2023-04-18T08:38:38.227Z,82.46
2023-04-18T08:39:38.298Z,82.60
2023-04-18T08:40:39.144Z,82.56
2023-04-18T08:41:38.235Z,82.36
2023-04-18T08:42:38.217Z,82.46
2023-04-18T08:43:38.214Z,81.74
2023-04-18T08:44:39.103Z,81.74
2023-04-18T08:45:39.160Z,81.40
2023-04-18T08:46:38.139Z,81.20
2023-04-18T08:47:38.876Z,81.20
2023-04-18T08:48:38.123Z,80.88
2023-04-18T08:49:38.127Z,80.88
2023-04-18T08:50:38.128Z,80.47
2023-04-18T08:51:38.097Z,80.68
2023-04-18T08:52:38.054Z,80.37
2023-04-18T08:53:38.089Z,80.33
2023-04-18T08:54:38.032Z,80.33
2023-04-18T08:55:38.070Z,80.03
2023-04-18T08:56:38.017Z,79.31
2023-04-18T08:57:38.035Z,79.35
2023-04-18T08:58:37.994Z,79.24
2023-04-18T08:59:38.029Z,79.35
2023-04-18T09:00:38.001Z,79.55
2023-04-18T09:01:38.028Z,79.72
2023-04-18T09:02:38.030Z,79.93
2023-04-18T09:03:38.130Z,79.52
2023-04-18T09:04:38.035Z,78.97
2023-04-18T09:05:37.960Z,78.66
2023-04-18T09:06:37.910Z,78.05
2023-04-18T09:07:37.933Z,78.15
2023-04-18T09:08:37.889Z,78.25
2023-04-18T09:09:37.935Z,77.84
2023-04-18T09:10:37.872Z,77.53
2023-04-18T09:11:37.863Z,77.94
2023-04-18T09:12:37.865Z,77.84
2023-04-18T09:13:37.844Z,77.50
2023-04-18T09:14:37.829Z,76.92
2023-04-18T09:15:37.841Z,77.33
2023-04-18T09:16:38.812Z,78.11
2023-04-18T09:17:37.875Z,77.80
2023-04-18T09:18:37.771Z,76.95
2023-04-18T09:19:37.794Z,76.75
2023-04-18T09:20:38.341Z,76.61
2023-04-18T09:21:37.761Z,76.06
2023-04-18T09:22:39.898Z,74.73
2023-04-18T09:23:37.747Z,74.29
2023-04-18T09:24:37.722Z,73.47
2023-04-18T09:25:39.834Z,73.88
2023-04-18T09:26:37.701Z,73.98
2023-04-18T09:27:37.726Z,73.68
2023-04-18T09:28:37.689Z,73.47
2023-04-18T09:29:37.694Z,73.47
2023-04-18T09:30:37.766Z,73.27
2023-04-18T09:31:37.702Z,73.06
2023-04-18T09:32:37.651Z,73.27
2023-04-18T09:33:37.680Z,73.57
2023-04-18T09:34:37.610Z,73.36
2023-04-18T09:35:37.681Z,73.68
2023-04-18T09:36:37.726Z,73.57
2023-04-18T09:37:37.618Z,73.47
2023-04-18T09:38:37.566Z,73.16
2023-04-18T09:39:37.616Z,72.55
2023-04-18T09:40:37.541Z,72.99
2023-04-18T09:41:37.555Z,73.40
2023-04-18T09:42:37.548Z,73.71
2023-04-18T09:43:37.555Z,73.61
2023-04-18T09:44:37.512Z,74.02
2023-04-18T09:45:37.530Z,74.08
2023-04-18T09:46:37.564Z,73.16
2023-04-18T09:47:38.602Z,72.45
2023-04-18T09:48:38.444Z,72.79
2023-04-18T09:49:37.475Z,73.47
2023-04-18T09:50:37.473Z,73.57
2023-04-18T09:51:37.478Z,73.57
2023-04-18T09:52:37.419Z,73.36
2023-04-18T09:53:37.485Z,73.13
2023-04-18T09:54:38.128Z,72.52
2023-04-18T09:55:37.406Z,72.41
2023-04-18T09:56:37.378Z,72.38
2023-04-18T09:57:37.437Z,71.84
2023-04-18T09:58:37.356Z,71.12
2023-04-18T09:59:37.375Z,70.81
2023-04-18T10:00:37.333Z,71.60
2023-04-18T10:01:37.358Z,71.80
2023-04-18T10:02:37.429Z,71.80
2023-04-18T10:03:37.389Z,70.89
2023-04-18T10:04:37.447Z,70.89
2023-04-18T10:06:06.313Z,70.00
2023-04-18T10:06:37.288Z,70.51
2023-04-18T10:07:37.261Z,69.79
2023-04-18T10:08:37.341Z,70.31
2023-04-18T10:09:37.217Z,70.40
2023-04-18T10:10:38.953Z,69.90
2023-04-18T10:11:37.211Z,70.31
2023-04-18T10:12:37.221Z,70.54
2023-04-18T10:13:37.222Z,69.69
2023-04-18T10:14:37.192Z,70.44
2023-04-18T10:15:37.218Z,71.26
2023-04-18T10:16:38.086Z,70.81
2023-04-18T10:17:37.411Z,70.61
2023-04-18T10:18:37.312Z,70.61
2023-04-18T10:19:37.116Z,70.92
2023-04-18T10:20:37.171Z,71.22
2023-04-18T10:21:37.109Z,71.39
2023-04-18T10:22:37.100Z,71.50
2023-04-18T10:23:37.185Z,70.20
2023-04-18T10:24:37.305Z,70.51
2023-04-18T10:25:38.002Z,70.61
2023-04-18T10:26:38.013Z,70.89
2023-04-18T10:27:38.176Z,70.57
2023-04-18T10:28:37.167Z,70.57
2023-04-18T10:29:38.000Z,70.57
2023-04-18T10:30:37.011Z,70.17
2023-04-18T10:31:37.053Z,70.37
2023-04-18T10:32:37.101Z,70.57
2023-04-18T10:33:37.164Z,69.56
2023-04-18T10:34:38.023Z,70.07
2023-04-18T10:35:39.248Z,69.90
2023-04-18T10:36:37.029Z,70.61
2023-04-18T10:37:36.921Z,70.31
2023-04-18T10:38:36.952Z,70.37
2023-04-18T10:39:36.937Z,70.17
2023-04-18T10:40:36.922Z,69.12
2023-04-18T10:41:36.919Z,69.12
2023-04-18T10:42:36.894Z,69.32
2023-04-18T10:43:36.858Z,69.15
2023-04-18T10:44:36.923Z,68.84
2023-04-18T10:45:36.897Z,69.90
2023-04-18T10:46:36.976Z,70.07
2023-04-18T10:47:36.897Z,70.07
2023-04-18T10:48:38.533Z,71.12
2023-04-18T10:49:36.811Z,72.14
2023-04-18T10:50:36.874Z,72.24
2023-04-18T10:51:36.846Z,72.21
2023-04-18T10:52:36.779Z,71.91
2023-04-18T10:53:36.762Z,70.48
2023-04-18T10:54:36.807Z,70.27
2023-04-18T10:55:36.755Z,70.17
2023-04-18T10:56:36.888Z,69.76
2023-04-18T10:57:36.733Z,69.83
2023-04-18T10:58:36.784Z,69.93
2023-04-18T10:59:36.754Z,69.83
2023-04-18T11:00:36.747Z,69.66
2023-04-18T11:01:36.801Z,70.07
2023-04-18T11:02:36.905Z,70.37
2023-04-18T11:03:36.801Z,70.07
2023-04-18T11:04:36.703Z,70.57
2023-04-18T11:05:36.687Z,70.57
2023-04-18T11:06:36.622Z,70.65
2023-04-18T11:07:36.647Z,70.14
2023-04-18T11:08:36.658Z,70.04
2023-04-18T11:09:36.607Z,70.04
2023-04-18T11:10:36.572Z,69.63
2023-04-18T11:11:36.564Z,69.49
2023-04-18T11:12:37.596Z,69.59
2023-04-18T11:13:36.767Z,68.78
2023-04-18T11:14:36.524Z,68.68
2023-04-18T11:15:37.190Z,68.78
2023-04-18T11:16:36.592Z,68.57
2023-04-18T11:17:38.073Z,67.96
2023-04-18T11:18:36.558Z,68.10
2023-04-18T11:19:36.534Z,67.99
2023-04-18T11:20:36.464Z,67.96
2023-04-18T11:21:36.526Z,67.35
2023-04-18T11:22:36.429Z,67.38
2023-04-18T11:23:36.541Z,67.69
2023-04-18T11:24:36.494Z,68.37
2023-04-18T11:25:36.559Z,68.98
2023-04-18T11:26:37.247Z,69.42
2023-04-18T11:27:36.421Z,70.14
2023-04-18T11:28:36.360Z,70.04
2023-04-18T11:29:36.433Z,70.00
2023-04-18T11:30:36.414Z,69.90
2023-04-18T11:31:36.371Z,69.90
2023-04-18T11:32:36.435Z,70.24
2023-04-18T11:33:36.348Z,70.24
2023-04-18T11:34:36.321Z,70.14
2023-04-18T11:35:36.434Z,70.34
2023-04-18T11:36:36.294Z,70.24
2023-04-18T11:37:36.303Z,70.04
2023-04-18T11:38:36.293Z,70.14
2023-04-18T11:39:36.263Z,70.34
2023-04-18T11:40:36.275Z,70.34
2023-04-18T11:41:37.222Z,69.83
2023-04-18T11:42:36.225Z,70.04
2023-04-18T11:43:36.279Z,70.34
2023-04-18T11:44:36.480Z,70.48
2023-04-18T11:45:36.204Z,70.34
2023-04-18T11:46:36.277Z,70.44
2023-04-18T11:47:36.219Z,70.24
2023-04-18T11:48:36.372Z,69.83
2023-04-18T11:49:36.173Z,69.93
2023-04-18T11:50:36.147Z,70.04
2023-04-18T11:51:36.214Z,69.90
2023-04-18T11:52:36.131Z,69.70
2023-04-18T11:53:36.142Z,69.80
2023-04-18T11:54:36.082Z,69.59
2023-04-18T11:55:36.104Z,69.29
2023-04-18T11:56:36.904Z,69.39
2023-04-18T11:57:36.091Z,69.70
2023-04-18T11:58:36.035Z,70.14
2023-04-18T11:59:36.087Z,70.51
2023-04-18T12:00:36.034Z,70.00
2023-04-18T12:01:36.037Z,70.00
2023-04-18T12:02:36.153Z,70.10
2023-04-18T12:03:36.251Z,70.10
2023-04-18T12:04:36.201Z,70.00
2023-04-18T12:05:36.278Z,70.21
2023-04-18T12:06:36.002Z,70.41
2023-04-18T12:07:35.990Z,70.51
2023-04-18T12:08:35.961Z,70.00
2023-04-18T12:09:35.994Z,70.54
2023-04-18T12:10:35.921Z,70.14
2023-04-18T12:11:37.135Z,70.48
2023-04-18T12:12:35.936Z,70.68
2023-04-18T12:13:36.574Z,70.68
2023-04-18T12:14:35.900Z,70.98
2023-04-18T12:15:35.924Z,70.89
2023-04-18T12:16:35.996Z,71.29
2023-04-18T12:17:35.930Z,70.75
2023-04-18T12:18:35.953Z,70.14
2023-04-18T12:19:35.863Z,70.14
2023-04-18T12:20:35.887Z,69.93
2023-04-18T12:21:36.105Z,70.17
2023-04-18T12:22:36.807Z,70.27
2023-04-18T12:23:36.443Z,70.04
2023-04-18T12:24:36.588Z,70.27
2023-04-18T12:25:35.794Z,69.86
2023-04-18T12:26:35.775Z,69.86
2023-04-18T12:27:35.767Z,69.96
2023-04-18T12:28:35.801Z,70.04
2023-04-18T12:29:35.766Z,69.53
2023-04-18T12:30:37.641Z,69.76
2023-04-18T12:31:35.794Z,69.96
2023-04-18T12:32:35.927Z,69.83
2023-04-18T12:33:35.786Z,69.73
2023-04-18T12:34:35.789Z,69.83
2023-04-18T12:35:35.808Z,69.19
2023-04-18T12:36:36.662Z,69.53
2023-04-18T12:37:35.654Z,70.04
2023-04-18T12:38:35.682Z,69.39
2023-04-18T12:39:35.675Z,69.53
2023-04-18T12:40:35.603Z,69.80
2023-04-18T12:41:35.836Z,69.59
2023-04-18T12:42:35.577Z,69.59
2023-04-18T12:43:35.646Z,69.09
2023-04-18T12:44:35.557Z,69.49
2023-04-18T12:45:37.240Z,69.59
2023-04-18T12:46:36.500Z,69.70
2023-04-18T12:47:35.671Z,70.00
2023-04-18T12:48:35.532Z,69.90
2023-04-18T12:49:35.578Z,70.10
2023-04-18T12:50:35.691Z,69.39
2023-04-18T12:51:35.557Z,69.09
2023-04-18T12:52:35.510Z,69.39